createdAt,value
2022-11-06T00:01:01.971Z,27.9
2022-11-06T00:06:01.984Z,29.3
2022-11-06T00:11:01.960Z,28.1
2022-11-06T00:16:01.971Z,28.1
2022-11-06T00:21:01.979Z,27.1
2022-11-06T00:26:01.970Z,26.5
2022-11-06T00:31:01.973Z,27.2
2022-11-06T00:36:02.039Z,23.7
2022-11-06T00:41:01.980Z,27.1
2022-11-06T00:46:01.974Z,27.1
2022-11-06T00:51:01.975Z,27.7
2022-11-06T00:56:01.981Z,26.4
2022-11-06T01:01:01.989Z,25.5
2022-11-06T01:06:01.968Z,26
2022-11-06T01:11:02.068Z,25.6
2022-11-06T01:16:02.068Z,25.6
2022-11-06T01:21:01.946Z,25.3
2022-11-06T01:26:02.089Z,24
2022-11-06T01:31:01.987Z,20.4
2022-11-06T01:36:01.960Z,24.4
2022-11-06T01:41:01.973Z,30
2022-11-06T01:46:01.966Z,30
2022-11-06T01:51:01.979Z,33
2022-11-06T01:56:01.985Z,35.4
2022-11-06T02:01:01.961Z,32.6
2022-11-06T02:06:01.980Z,37.1
2022-11-06T02:11:01.978Z,38.7
2022-11-06T02:16:01.986Z,38.7
2022-11-06T02:21:02.095Z,27.3
2022-11-06T02:26:01.974Z,26.3
2022-11-06T02:31:01.999Z,32
2022-11-06T02:36:01.985Z,32.1
2022-11-06T02:41:02.083Z,32.1
2022-11-06T02:46:01.993Z,32.1
2022-11-06T02:51:01.965Z,28.1
2022-11-06T02:56:01.977Z,35.3
2022-11-06T03:01:01.968Z,36.2
2022-11-06T03:06:01.989Z,34.4
2022-11-06T03:11:01.986Z,32.1
2022-11-06T03:16:01.980Z,32.1
2022-11-06T03:21:01.960Z,31.9
2022-11-06T03:26:02.005Z,33.7
2022-11-06T03:31:01.984Z,42.4
2022-11-06T03:36:01.989Z,35.7
2022-11-06T03:41:01.988Z,34.1
2022-11-06T03:46:01.975Z,34.1
2022-11-06T03:51:01.986Z,31.5
2022-11-06T03:56:01.996Z,26.5
2022-11-06T04:01:01.975Z,37.2
2022-11-06T04:06:01.996Z,42.5
2022-11-06T04:11:01.982Z,34.7
2022-11-06T04:16:01.993Z,34.7
2022-11-06T04:21:01.987Z,34.9
2022-11-06T04:26:01.992Z,28.8
2022-11-06T04:31:01.991Z,31.3
2022-11-06T04:36:01.994Z,23.4
2022-11-06T04:41:01.990Z,21.2
2022-11-06T04:46:01.985Z,21.2
2022-11-06T04:51:01.967Z,24.8
2022-11-06T04:56:01.986Z,24.2
2022-11-06T05:01:02.106Z,25.1
2022-11-06T05:06:01.981Z,21.8
2022-11-06T05:11:01.977Z,23.2
2022-11-06T05:16:01.975Z,23.2
2022-11-06T05:21:01.974Z,24.7
2022-11-06T05:26:01.974Z,17.7
2022-11-06T05:31:02.003Z,19.8
2022-11-06T05:36:01.984Z,18.1
2022-11-06T05:41:01.990Z,18.9
2022-11-06T05:46:01.981Z,18.9
2022-11-06T05:51:02.019Z,15.2
2022-11-06T05:56:02.018Z,14.6
2022-11-06T06:01:01.985Z,13.4
2022-11-06T06:06:02.000Z,15.1
2022-11-06T06:11:01.986Z,14.2
2022-11-06T06:16:01.992Z,14.2
2022-11-06T06:21:01.978Z,15.2
2022-11-06T06:26:01.998Z,13.9
2022-11-06T06:31:02.095Z,17.7
2022-11-06T06:36:02.000Z,14.2
2022-11-06T06:41:01.973Z,17.3
2022-11-06T06:46:01.987Z,17.3
2022-11-06T06:51:01.935Z,15.8
2022-11-06T06:56:02.021Z,17.7
2022-11-06T07:01:01.991Z,14.9
2022-11-06T07:06:01.984Z,16
2022-11-06T07:11:01.973Z,16
2022-11-06T07:16:01.972Z,16
2022-11-06T07:21:01.986Z,16.1
2022-11-06T07:26:01.976Z,17
2022-11-06T07:31:01.978Z,17
2022-11-06T07:36:01.976Z,13.8
2022-11-06T07:41:01.990Z,15.1
2022-11-06T07:46:02.013Z,15.1
2022-11-06T07:51:02.003Z,15.7
2022-11-06T07:56:01.961Z,17.3
2022-11-06T08:01:02.060Z,19.7
2022-11-06T08:06:02.002Z,15.1
2022-11-06T08:11:02.007Z,15.4
2022-11-06T08:16:01.995Z,15.4
2022-11-06T08:21:02.003Z,15.9
2022-11-06T08:26:02.000Z,17.7
2022-11-06T08:31:02.040Z,18.8
2022-11-06T08:36:02.001Z,22.1
2022-11-06T08:41:01.990Z,19.3
2022-11-06T08:46:01.998Z,19.3
2022-11-06T08:51:02.014Z,17.2
2022-11-06T08:56:02.061Z,16.8
2022-11-06T09:01:02.121Z,17.3
2022-11-06T09:06:02.019Z,16
2022-11-06T09:11:02.009Z,13.9
2022-11-06T09:16:02.061Z,13.9
2022-11-06T09:21:02.008Z,12
2022-11-06T09:26:02.028Z,11.9
2022-11-06T09:31:02.027Z,12.8
2022-11-06T09:36:02.019Z,12.2
2022-11-06T09:41:02.062Z,12.5
2022-11-06T09:46:02.013Z,12.5
2022-11-06T09:51:02.052Z,11.6
2022-11-06T09:56:02.014Z,11.5
2022-11-06T10:01:02.069Z,13.5
2022-11-06T10:06:02.025Z,12.7
2022-11-06T10:11:02.023Z,11.5
2022-11-06T10:16:02.022Z,11.5
2022-11-06T10:21:02.029Z,10.5
2022-11-06T10:26:02.027Z,10.6
2022-11-06T10:31:02.075Z,9.2
2022-11-06T10:36:02.019Z,10.7
2022-11-06T10:41:02.029Z,9.6
2022-11-06T10:46:02.025Z,9.6
2022-11-06T10:51:02.029Z,9.7
2022-11-06T10:56:05.532Z,9.1
2022-11-06T11:01:02.138Z,8.6
2022-11-06T11:06:02.032Z,8.7
2022-11-06T11:11:05.182Z,9.2
2022-11-06T11:16:02.012Z,9.2
2022-11-06T11:21:02.040Z,8.8
2022-11-06T11:26:02.057Z,8.9
2022-11-06T11:31:02.050Z,7
2022-11-06T11:36:02.027Z,8.7
2022-11-06T11:41:02.039Z,10.3
2022-11-06T11:46:02.019Z,10.3
2022-11-06T11:51:02.031Z,10.3
2022-11-06T11:56:02.023Z,9.1
2022-11-06T12:01:02.099Z,9.4
2022-11-06T12:06:02.026Z,9
2022-11-06T12:11:02.032Z,10.8
2022-11-06T12:16:02.022Z,10.8
2022-11-06T12:21:02.009Z,10.2
2022-11-06T12:26:02.044Z,8.3
2022-11-06T12:31:02.068Z,8.5
2022-11-06T12:36:02.029Z,7.3
2022-11-06T12:41:02.039Z,7.8
2022-11-06T12:46:02.031Z,7.8
2022-11-06T12:51:02.041Z,9.4
2022-11-06T12:56:02.075Z,9
2022-11-06T13:01:02.092Z,7.2
2022-11-06T13:06:02.027Z,8.2
2022-11-06T13:11:02.041Z,7.8
2022-11-06T13:16:02.039Z,7.8
2022-11-06T13:21:02.030Z,8
2022-11-06T13:26:02.044Z,8
2022-11-06T13:31:02.052Z,7.6
2022-11-06T13:36:02.035Z,7.4
2022-11-06T13:41:03.652Z,8.3
2022-11-06T13:46:02.025Z,8.3
2022-11-06T13:51:02.041Z,7.6
2022-11-06T13:56:02.127Z,7.2
2022-11-06T14:01:02.159Z,7.3
2022-11-06T14:06:02.043Z,7.1
2022-11-06T14:11:02.031Z,7.2
2022-11-06T14:16:02.048Z,7.2
2022-11-06T14:21:02.057Z,6.4
2022-11-06T14:26:02.058Z,8.3
2022-11-06T14:31:15.623Z,6.4
2022-11-06T14:36:02.060Z,7.3
2022-11-06T14:41:02.057Z,6.3
2022-11-06T14:46:02.074Z,6.3
2022-11-06T14:51:02.054Z,6.9
2022-11-06T14:56:02.056Z,6.4
2022-11-06T15:01:02.147Z,6.6
2022-11-06T15:06:02.058Z,6.7
2022-11-06T15:11:02.048Z,7.3
2022-11-06T15:16:02.067Z,7.3
2022-11-06T15:21:02.069Z,7.4
2022-11-06T15:26:02.055Z,5.5
2022-11-06T15:31:02.121Z,6.2
2022-11-06T15:36:02.055Z,7.7
2022-11-06T15:41:02.068Z,8.2
2022-11-06T15:46:06.806Z,8.2
2022-11-06T15:51:02.068Z,7.4
2022-11-06T15:56:02.064Z,8.4
2022-11-06T16:01:02.150Z,6.6
2022-11-06T16:06:02.085Z,8.4
2022-11-06T16:11:02.072Z,8.4
2022-11-06T16:16:02.083Z,8
2022-11-06T16:21:02.076Z,7.6
2022-11-06T16:26:02.072Z,7.1
2022-11-06T16:31:02.100Z,7.5
2022-11-06T16:36:02.076Z,7.9
2022-11-06T16:41:02.081Z,7.9
2022-11-06T16:46:02.079Z,8.6
2022-11-06T16:51:02.065Z,7.8
2022-11-06T16:56:02.094Z,7.6
2022-11-06T17:01:02.105Z,8.5
2022-11-06T17:06:02.085Z,30.9
2022-11-06T17:11:02.079Z,30.9
2022-11-06T17:16:02.090Z,13.8
2022-11-06T17:21:02.070Z,10.2
2022-11-06T17:26:02.084Z,9.8
2022-11-06T17:31:02.104Z,11.4
2022-11-06T17:36:02.086Z,26.8
2022-11-06T17:41:02.093Z,26.8
2022-11-06T17:46:02.111Z,12.8
2022-11-06T17:51:02.098Z,9.1
2022-11-06T17:56:02.103Z,11.4
2022-11-06T18:01:02.134Z,9.5
2022-11-06T18:06:02.092Z,10.2
2022-11-06T18:11:02.099Z,10.2
2022-11-06T18:16:02.114Z,14.7
2022-11-06T18:21:02.104Z,17.8
2022-11-06T18:26:02.089Z,8.6
2022-11-06T18:31:02.115Z,5.3
2022-11-06T18:36:02.096Z,6
2022-11-06T18:41:02.110Z,6
2022-11-06T18:46:02.123Z,7.7
2022-11-06T18:51:02.091Z,8.3
2022-11-06T18:56:02.110Z,9.7
2022-11-06T19:01:02.281Z,10.1
2022-11-06T19:06:02.095Z,9.4
2022-11-06T19:11:02.112Z,9.4
2022-11-06T19:16:02.108Z,8.7
2022-11-06T19:21:02.117Z,8.9
2022-11-06T19:26:29.430Z,8.3
2022-11-06T19:31:02.143Z,9.2
2022-11-06T19:36:02.117Z,7.1
2022-11-06T19:41:02.094Z,7.1
2022-11-06T19:46:02.095Z,10.8
2022-11-06T19:51:02.116Z,10.7
2022-11-06T19:56:02.092Z,10.7
2022-11-06T20:01:02.151Z,10
2022-11-06T20:06:06.563Z,9.1
2022-11-06T20:11:02.123Z,9.1
2022-11-06T20:16:02.117Z,9.7
2022-11-06T20:21:02.116Z,9
2022-11-06T20:26:02.114Z,8.3
2022-11-06T20:31:02.137Z,10.1
2022-11-06T20:36:02.105Z,9.2
2022-11-06T20:41:02.133Z,9.2
2022-11-06T20:46:02.178Z,9.1
2022-11-06T20:51:02.114Z,12.4
2022-11-06T20:56:02.124Z,10.1
2022-11-06T21:01:02.118Z,9
2022-11-06T21:06:02.130Z,9.1
2022-11-06T21:11:06.223Z,9.1
2022-11-06T21:16:02.132Z,9.4
2022-11-06T21:21:02.131Z,8.4
2022-11-06T21:26:02.135Z,8.4
2022-11-06T21:31:02.140Z,8.5
2022-11-06T21:36:02.129Z,8
2022-11-06T21:41:02.146Z,8
2022-11-06T21:46:02.145Z,7.6
2022-11-06T21:51:02.142Z,7.8
2022-11-06T21:56:02.129Z,7.1
2022-11-06T22:01:02.154Z,6.6
2022-11-06T22:06:02.164Z,6.8
2022-11-06T22:11:02.135Z,6.8
2022-11-06T22:16:02.204Z,6.9
2022-11-06T22:21:02.139Z,6.7
2022-11-06T22:26:02.138Z,7
2022-11-06T22:31:02.162Z,6.6
2022-11-06T22:36:02.149Z,5.8
2022-11-06T22:41:02.154Z,5.8
2022-11-06T22:46:02.189Z,5.8
2022-11-06T22:51:02.158Z,5
2022-11-06T22:56:02.153Z,6.2
2022-11-06T23:01:02.176Z,5.3
2022-11-06T23:06:02.141Z,6.2
2022-11-06T23:11:02.166Z,6.2
2022-11-06T23:16:02.175Z,5.5
2022-11-06T23:21:02.175Z,5.7
2022-11-06T23:26:02.162Z,5.2
2022-11-06T23:31:02.188Z,5.7
2022-11-06T23:36:02.174Z,5
2022-11-06T23:41:02.184Z,5
2022-11-06T23:46:02.190Z,4.9
2022-11-06T23:51:02.186Z,5.1
2022-11-06T23:56:02.174Z,6.7
